sensor_id;sensor_type;location;lat;lon;timestamp;temperature;humidity
21123;DHT22;10719;48.130;11.630;2023-10-19T00:00:38;7.40;99.90
21123;DHT22;10719;48.130;11.630;2023-10-19T00:03:06;7.40;99.90
21123;DHT22;10719;48.130;11.630;2023-10-19T00:05:35;7.40;99.90
21123;DHT22;10719;48.130;11.630;2023-10-19T00:08:02;7.40;99.90
21123;DHT22;10719;48.130;11.630;2023-10-19T00:10:41;7.40;99.90
21123;DHT22;10719;48.130;11.630;2023-10-19T00:13:09;7.40;99.90
21123;DHT22;10719;48.130;11.630;2023-10-19T00:15:41;7.40;99.90
21123;DHT22;10719;48.130;11.630;2023-10-19T00:18:18;7.40;99.90
21123;DHT22;10719;48.130;11.630;2023-10-19T00:20:45;7.40;99.90
21123;DHT22;10719;48.130;11.630;2023-10-19T00:23:11;7.40;99.90
21123;DHT22;10719;48.130;11.630;2023-10-19T00:25:39;7.50;99.90
21123;DHT22;10719;48.130;11.630;2023-10-19T00:28:10;7.50;99.90
21123;DHT22;10719;48.130;11.630;2023-10-19T00:30:38;7.50;99.90
21123;DHT22;10719;48.130;11.630;2023-10-19T00:33:04;7.40;99.90
21123;DHT22;10719;48.130;11.630;2023-10-19T00:35:40;7.40;99.90
21123;DHT22;10719;48.130;11.630;2023-10-19T00:38:13;7.40;99.90
21123;DHT22;10719;48.130;11.630;2023-10-19T00:40:57;7.40;99.90
21123;DHT22;10719;48.130;11.630;2023-10-19T00:43:33;7.40;99.90
21123;DHT22;10719;48.130;11.630;2023-10-19T00:46:06;7.30;99.90
21123;DHT22;10719;48.130;11.630;2023-10-19T00:48:54;7.40;99.90
21123;DHT22;10719;48.130;11.630;2023-10-19T00:51:22;7.40;99.90
21123;DHT22;10719;48.130;11.630;2023-10-19T00:53:56;7.40;99.90
21123;DHT22;10719;48.130;11.630;2023-10-19T00:56:24;7.40;99.90
21123;DHT22;10719;48.130;11.630;2023-10-19T00:58:54;7.40;99.90
21123;DHT22;10719;48.130;11.630;2023-10-19T01:01:28;7.40;99.90
21123;DHT22;10719;48.130;11.630;2023-10-19T01:03:54;7.40;99.90
21123;DHT22;10719;48.130;11.630;2023-10-19T01:06:27;7.40;99.90
21123;DHT22;10719;48.130;11.630;2023-10-19T01:08:57;7.40;99.90
21123;DHT22;10719;48.130;11.630;2023-10-19T01:11:23;7.40;99.90
21123;DHT22;10719;48.130;11.630;2023-10-19T01:13:53;7.30;99.90
21123;DHT22;10719;48.130;11.630;2023-10-19T01:16:19;7.40;99.90
21123;DHT22;10719;48.130;11.630;2023-10-19T01:18:51;7.40;99.90
21123;DHT22;10719;48.130;11.630;2023-10-19T01:21:23;7.50;99.90
21123;DHT22;10719;48.130;11.630;2023-10-19T01:24:06;7.50;99.90
21123;DHT22;10719;48.130;11.630;2023-10-19T01:26:33;7.50;99.90
21123;DHT22;10719;48.130;11.630;2023-10-19T01:29:02;7.50;99.90
21123;DHT22;10719;48.130;11.630;2023-10-19T01:31:38;7.40;99.90
21123;DHT22;10719;48.130;11.630;2023-10-19T01:34:16;7.50;99.90
21123;DHT22;10719;48.130;11.630;2023-10-19T01:36:45;7.50;99.90
21123;DHT22;10719;48.130;11.630;2023-10-19T01:39:15;7.50;99.90
21123;DHT22;10719;48.130;11.630;2023-10-19T01:41:41;7.60;99.90
21123;DHT22;10719;48.130;11.630;2023-10-19T01:44:07;7.60;99.90
21123;DHT22;10719;48.130;11.630;2023-10-19T01:46:38;7.70;99.90
21123;DHT22;10719;48.130;11.630;2023-10-19T01:49:04;7.70;99.90
21123;DHT22;10719;48.130;11.630;2023-10-19T01:51:32;7.60;99.90
21123;DHT22;10719;48.130;11.630;2023-10-19T01:54:04;7.60;99.90
21123;DHT22;10719;48.130;11.630;2023-10-19T01:56:41;7.70;99.90
21123;DHT22;10719;48.130;11.630;2023-10-19T01:59:17;7.70;99.90
21123;DHT22;10719;48.130;11.630;2023-10-19T02:01:43;7.70;99.90
21123;DHT22;10719;48.130;11.630;2023-10-19T02:04:11;7.70;99.90
21123;DHT22;10719;48.130;11.630;2023-10-19T02:06:38;7.70;99.90
21123;DHT22;10719;48.130;11.630;2023-10-19T02:09:10;7.70;99.90
21123;DHT22;10719;48.130;11.630;2023-10-19T02:11:53;7.70;99.90
21123;DHT22;10719;48.130;11.630;2023-10-19T02:14:21;7.70;99.90
21123;DHT22;10719;48.130;11.630;2023-10-19T02:16:49;7.70;99.90
21123;DHT22;10719;48.130;11.630;2023-10-19T02:19:19;7.70;99.90
21123;DHT22;10719;48.130;11.630;2023-10-19T02:21:52;7.80;99.90
21123;DHT22;10719;48.130;11.630;2023-10-19T02:24:19;7.90;99.90
21123;DHT22;10719;48.130;11.630;2023-10-19T02:26:46;7.90;99.90
21123;DHT22;10719;48.130;11.630;2023-10-19T02:29:12;7.90;99.90
21123;DHT22;10719;48.130;11.630;2023-10-19T02:31:40;8.00;99.90
21123;DHT22;10719;48.130;11.630;2023-10-19T02:34:07;8.10;99.90
21123;DHT22;10719;48.130;11.630;2023-10-19T02:36:34;8.10;99.90
21123;DHT22;10719;48.130;11.630;2023-10-19T02:39:05;8.10;99.90
21123;DHT22;10719;48.130;11.630;2023-10-19T02:41:42;8.10;99.90
21123;DHT22;10719;48.130;11.630;2023-10-19T02:44:19;8.10;99.90
21123;DHT22;10719;48.130;11.630;2023-10-19T02:46:52;8.10;99.90
21123;DHT22;10719;48.130;11.630;2023-10-19T02:49:20;8.10;99.90
21123;DHT22;10719;48.130;11.630;2023-10-19T02:51:47;8.10;99.90
21123;DHT22;10719;48.130;11.630;2023-10-19T02:54:14;8.10;99.90
21123;DHT22;10719;48.130;11.630;2023-10-19T02:56:48;8.10;99.90
21123;DHT22;10719;48.130;11.630;2023-10-19T02:59:15;8.10;99.90
21123;DHT22;10719;48.130;11.630;2023-10-19T03:01:42;8.10;99.90
21123;DHT22;10719;48.130;11.630;2023-10-19T03:04:11;8.10;99.90
21123;DHT22;10719;48.130;11.630;2023-10-19T03:06:41;8.00;99.90
21123;DHT22;10719;48.130;11.630;2023-10-19T03:09:07;8.10;99.90
21123;DHT22;10719;48.130;11.630;2023-10-19T03:11:43;8.00;99.90
21123;DHT22;10719;48.130;11.630;2023-10-19T03:14:10;8.00;99.90
21123;DHT22;10719;48.130;11.630;2023-10-19T03:16:37;8.00;99.90
21123;DHT22;10719;48.130;11.630;2023-10-19T03:19:03;8.00;99.90
21123;DHT22;10719;48.130;11.630;2023-10-19T03:21:30;8.00;99.90
21123;DHT22;10719;48.130;11.630;2023-10-19T03:23:58;8.00;99.90
21123;DHT22;10719;48.130;11.630;2023-10-19T03:26:27;8.00;99.90
21123;DHT22;10719;48.130;11.630;2023-10-19T03:28:56;8.00;99.90
21123;DHT22;10719;48.130;11.630;2023-10-19T03:31:26;8.00;99.90
21123;DHT22;10719;48.130;11.630;2023-10-19T03:33:52;8.10;99.90
21123;DHT22;10719;48.130;11.630;2023-10-19T03:36:22;8.00;99.90
21123;DHT22;10719;48.130;11.630;2023-10-19T03:38:48;8.00;99.90
21123;DHT22;10719;48.130;11.630;2023-10-19T03:41:15;8.10;99.90
21123;DHT22;10719;48.130;11.630;2023-10-19T03:43:41;8.10;99.90
21123;DHT22;10719;48.130;11.630;2023-10-19T03:46:07;8.10;99.90
21123;DHT22;10719;48.130;11.630;2023-10-19T03:48:51;8.20;99.90
21123;DHT22;10719;48.130;11.630;2023-10-19T03:51:17;8.20;99.90
21123;DHT22;10719;48.130;11.630;2023-10-19T03:53:43;8.10;99.90
21123;DHT22;10719;48.130;11.630;2023-10-19T03:56:20;8.10;99.90
21123;DHT22;10719;48.130;11.630;2023-10-19T03:58:46;8.10;99.90
21123;DHT22;10719;48.130;11.630;2023-10-19T04:01:16;8.10;99.90
21123;DHT22;10719;48.130;11.630;2023-10-19T04:03:43;8.10;99.90
21123;DHT22;10719;48.130;11.630;2023-10-19T04:06:09;8.10;99.90
21123;DHT22;10719;48.130;11.630;2023-10-19T04:08:40;8.10;99.90
21123;DHT22;10719;48.130;11.630;2023-10-19T04:11:06;8.20;99.90
21123;DHT22;10719;48.130;11.630;2023-10-19T04:13:37;8.10;99.90
21123;DHT22;10719;48.130;11.630;2023-10-19T04:16:04;8.10;99.90
21123;DHT22;10719;48.130;11.630;2023-10-19T04:18:35;8.10;99.90
21123;DHT22;10719;48.130;11.630;2023-10-19T04:21:05;8.20;99.90
21123;DHT22;10719;48.130;11.630;2023-10-19T04:23:31;8.20;99.90
21123;DHT22;10719;48.130;11.630;2023-10-19T04:26:00;8.20;99.90
21123;DHT22;10719;48.130;11.630;2023-10-19T04:28:31;8.20;99.90
21123;DHT22;10719;48.130;11.630;2023-10-19T04:31:03;8.20;99.90
21123;DHT22;10719;48.130;11.630;2023-10-19T04:33:31;8.30;99.90
21123;DHT22;10719;48.130;11.630;2023-10-19T04:35:57;8.30;99.90
21123;DHT22;10719;48.130;11.630;2023-10-19T04:38:26;8.40;99.90
21123;DHT22;10719;48.130;11.630;2023-10-19T04:40:52;8.40;99.90
21123;DHT22;10719;48.130;11.630;2023-10-19T04:43:17;8.30;99.90
21123;DHT22;10719;48.130;11.630;2023-10-19T04:45:43;8.40;99.90
21123;DHT22;10719;48.130;11.630;2023-10-19T04:48:11;8.30;99.90
21123;DHT22;10719;48.130;11.630;2023-10-19T04:50:37;8.40;99.90
21123;DHT22;10719;48.130;11.630;2023-10-19T04:53:03;8.30;99.90
21123;DHT22;10719;48.130;11.630;2023-10-19T04:55:30;8.30;99.90
21123;DHT22;10719;48.130;11.630;2023-10-19T04:57:55;8.30;99.90
21123;DHT22;10719;48.130;11.630;2023-10-19T05:00:22;8.30;99.90
21123;DHT22;10719;48.130;11.630;2023-10-19T05:02:50;8.40;99.90
21123;DHT22;10719;48.130;11.630;2023-10-19T05:05:17;8.40;99.90
21123;DHT22;10719;48.130;11.630;2023-10-19T05:07:43;8.50;99.90
21123;DHT22;10719;48.130;11.630;2023-10-19T05:10:09;8.50;99.90
21123;DHT22;10719;48.130;11.630;2023-10-19T05:12:34;8.40;99.90
21123;DHT22;10719;48.130;11.630;2023-10-19T05:15:00;8.50;99.90
21123;DHT22;10719;48.130;11.630;2023-10-19T05:17:26;8.50;99.90
21123;DHT22;10719;48.130;11.630;2023-10-19T05:19:52;8.50;99.90
21123;DHT22;10719;48.130;11.630;2023-10-19T05:22:18;8.60;99.90
21123;DHT22;10719;48.130;11.630;2023-10-19T05:24:44;8.60;99.90
21123;DHT22;10719;48.130;11.630;2023-10-19T05:27:10;8.60;99.90
21123;DHT22;10719;48.130;11.630;2023-10-19T05:29:35;8.50;99.90
21123;DHT22;10719;48.130;11.630;2023-10-19T05:32:01;8.60;99.90
21123;DHT22;10719;48.130;11.630;2023-10-19T05:34:28;8.60;99.90
21123;DHT22;10719;48.130;11.630;2023-10-19T05:36:55;8.60;99.90
21123;DHT22;10719;48.130;11.630;2023-10-19T05:39:24;8.60;99.90
21123;DHT22;10719;48.130;11.630;2023-10-19T05:41:54;8.70;99.90
21123;DHT22;10719;48.130;11.630;2023-10-19T05:44:19;8.70;99.90
21123;DHT22;10719;48.130;11.630;2023-10-19T05:46:45;8.70;99.90
21123;DHT22;10719;48.130;11.630;2023-10-19T05:49:12;8.70;99.90
21123;DHT22;10719;48.130;11.630;2023-10-19T05:51:38;8.80;99.90
21123;DHT22;10719;48.130;11.630;2023-10-19T05:54:04;8.70;99.90
21123;DHT22;10719;48.130;11.630;2023-10-19T05:56:33;8.70;99.90
21123;DHT22;10719;48.130;11.630;2023-10-19T05:59:01;8.70;99.90
21123;DHT22;10719;48.130;11.630;2023-10-19T06:01:27;8.70;99.90
21123;DHT22;10719;48.130;11.630;2023-10-19T06:03:53;8.70;99.90
21123;DHT22;10719;48.130;11.630;2023-10-19T06:06:19;8.80;99.90
21123;DHT22;10719;48.130;11.630;2023-10-19T06:08:45;8.80;99.90
21123;DHT22;10719;48.130;11.630;2023-10-19T06:11:11;8.70;99.90
21123;DHT22;10719;48.130;11.630;2023-10-19T06:13:36;8.70;99.90
21123;DHT22;10719;48.130;11.630;2023-10-19T06:16:02;8.80;99.90
21123;DHT22;10719;48.130;11.630;2023-10-19T06:18:28;8.70;99.90
21123;DHT22;10719;48.130;11.630;2023-10-19T06:20:55;8.70;99.90
21123;DHT22;10719;48.130;11.630;2023-10-19T06:23:20;8.70;99.90
21123;DHT22;10719;48.130;11.630;2023-10-19T06:25:46;8.70;99.90
21123;DHT22;10719;48.130;11.630;2023-10-19T06:28:12;8.70;99.90
21123;DHT22;10719;48.130;11.630;2023-10-19T06:30:38;8.70;99.90
21123;DHT22;10719;48.130;11.630;2023-10-19T06:33:05;8.80;99.90
21123;DHT22;10719;48.130;11.630;2023-10-19T06:35:32;8.80;99.90
21123;DHT22;10719;48.130;11.630;2023-10-19T06:37:59;8.90;99.90
21123;DHT22;10719;48.130;11.630;2023-10-19T06:40:25;9.00;99.90
21123;DHT22;10719;48.130;11.630;2023-10-19T06:42:58;9.10;99.90
21123;DHT22;10719;48.130;11.630;2023-10-19T06:45:24;9.10;99.90
21123;DHT22;10719;48.130;11.630;2023-10-19T06:47:51;9.20;99.90
21123;DHT22;10719;48.130;11.630;2023-10-19T06:50:22;9.20;99.90
21123;DHT22;10719;48.130;11.630;2023-10-19T06:52:48;9.20;99.90
21123;DHT22;10719;48.130;11.630;2023-10-19T06:55:14;9.30;99.90
21123;DHT22;10719;48.130;11.630;2023-10-19T06:57:45;9.30;99.90
21123;DHT22;10719;48.130;11.630;2023-10-19T07:00:11;9.40;99.90
21123;DHT22;10719;48.130;11.630;2023-10-19T07:02:42;9.40;99.90
21123;DHT22;10719;48.130;11.630;2023-10-19T07:05:08;9.50;99.90
21123;DHT22;10719;48.130;11.630;2023-10-19T07:07:39;9.60;99.90
21123;DHT22;10719;48.130;11.630;2023-10-19T07:10:07;9.60;99.90
21123;DHT22;10719;48.130;11.630;2023-10-19T07:12:34;9.70;99.90
21123;DHT22;10719;48.130;11.630;2023-10-19T07:15:00;9.80;99.90
21123;DHT22;10719;48.130;11.630;2023-10-19T07:17:26;9.90;99.90
21123;DHT22;10719;48.130;11.630;2023-10-19T07:19:53;10.10;99.90
21123;DHT22;10719;48.130;11.630;2023-10-19T07:22:18;10.20;99.90
21123;DHT22;10719;48.130;11.630;2023-10-19T07:24:48;10.30;99.90
21123;DHT22;10719;48.130;11.630;2023-10-19T07:27:14;10.40;99.90
21123;DHT22;10719;48.130;11.630;2023-10-19T07:29:44;10.50;99.90
21123;DHT22;10719;48.130;11.630;2023-10-19T07:32:10;10.70;99.90
21123;DHT22;10719;48.130;11.630;2023-10-19T07:34:39;10.90;99.90
21123;DHT22;10719;48.130;11.630;2023-10-19T07:37:04;11.00;99.90
21123;DHT22;10719;48.130;11.630;2023-10-19T07:39:30;11.10;99.90
21123;DHT22;10719;48.130;11.630;2023-10-19T07:41:59;11.10;99.90
21123;DHT22;10719;48.130;11.630;2023-10-19T07:44:25;11.20;99.90
21123;DHT22;10719;48.130;11.630;2023-10-19T07:46:51;11.30;99.90
21123;DHT22;10719;48.130;11.630;2023-10-19T07:49:17;11.40;99.90
21123;DHT22;10719;48.130;11.630;2023-10-19T07:51:47;11.50;99.90
21123;DHT22;10719;48.130;11.630;2023-10-19T07:54:13;11.50;99.90
21123;DHT22;10719;48.130;11.630;2023-10-19T07:56:39;11.60;99.90
21123;DHT22;10719;48.130;11.630;2023-10-19T07:59:05;11.70;99.90
21123;DHT22;10719;48.130;11.630;2023-10-19T08:01:32;11.70;99.90
21123;DHT22;10719;48.130;11.630;2023-10-19T08:03:58;11.90;99.90
21123;DHT22;10719;48.130;11.630;2023-10-19T08:06:23;11.90;99.90
21123;DHT22;10719;48.130;11.630;2023-10-19T08:08:49;12.00;99.90
21123;DHT22;10719;48.130;11.630;2023-10-19T08:11:15;12.00;99.90
21123;DHT22;10719;48.130;11.630;2023-10-19T08:13:42;12.00;99.90
21123;DHT22;10719;48.130;11.630;2023-10-19T08:16:08;12.20;99.90
21123;DHT22;10719;48.130;11.630;2023-10-19T08:18:34;12.30;99.90
21123;DHT22;10719;48.130;11.630;2023-10-19T08:21:01;12.50;99.90
21123;DHT22;10719;48.130;11.630;2023-10-19T08:23:27;12.60;99.90
21123;DHT22;10719;48.130;11.630;2023-10-19T08:25:54;12.80;99.90
21123;DHT22;10719;48.130;11.630;2023-10-19T08:28:20;12.90;99.90
21123;DHT22;10719;48.130;11.630;2023-10-19T08:30:46;13.10;99.90
21123;DHT22;10719;48.130;11.630;2023-10-19T08:33:25;13.10;99.90
21123;DHT22;10719;48.130;11.630;2023-10-19T08:35:55;13.20;99.90
21123;DHT22;10719;48.130;11.630;2023-10-19T08:38:24;13.30;99.90
21123;DHT22;10719;48.130;11.630;2023-10-19T08:40:50;13.40;99.90
21123;DHT22;10719;48.130;11.630;2023-10-19T08:43:20;13.60;99.90
21123;DHT22;10719;48.130;11.630;2023-10-19T08:45:47;13.70;99.90
21123;DHT22;10719;48.130;11.630;2023-10-19T08:48:12;13.80;99.90
21123;DHT22;10719;48.130;11.630;2023-10-19T08:50:39;13.90;99.90
21123;DHT22;10719;48.130;11.630;2023-10-19T08:53:07;13.90;99.90
21123;DHT22;10719;48.130;11.630;2023-10-19T08:55:35;14.00;99.90
21123;DHT22;10719;48.130;11.630;2023-10-19T08:58:01;14.10;99.90
21123;DHT22;10719;48.130;11.630;2023-10-19T09:00:46;14.10;99.90
21123;DHT22;10719;48.130;11.630;2023-10-19T09:03:16;14.20;99.90
21123;DHT22;10719;48.130;11.630;2023-10-19T09:05:42;14.30;99.90
21123;DHT22;10719;48.130;11.630;2023-10-19T09:08:14;14.40;99.90
21123;DHT22;10719;48.130;11.630;2023-10-19T09:10:42;14.50;99.90
21123;DHT22;10719;48.130;11.630;2023-10-19T09:13:11;14.60;99.90
21123;DHT22;10719;48.130;11.630;2023-10-19T09:15:39;14.70;99.90
21123;DHT22;10719;48.130;11.630;2023-10-19T09:18:15;14.80;99.90
21123;DHT22;10719;48.130;11.630;2023-10-19T09:20:51;14.90;99.90
21123;DHT22;10719;48.130;11.630;2023-10-19T09:23:40;14.90;99.90
21123;DHT22;10719;48.130;11.630;2023-10-19T09:26:07;14.90;99.90
21123;DHT22;10719;48.130;11.630;2023-10-19T09:28:36;14.90;99.90
21123;DHT22;10719;48.130;11.630;2023-10-19T09:31:03;14.80;99.90
21123;DHT22;10719;48.130;11.630;2023-10-19T09:33:34;14.80;99.90
21123;DHT22;10719;48.130;11.630;2023-10-19T09:36:01;14.80;99.90
21123;DHT22;10719;48.130;11.630;2023-10-19T09:38:27;14.80;99.90
21123;DHT22;10719;48.130;11.630;2023-10-19T09:40:54;14.70;99.90
21123;DHT22;10719;48.130;11.630;2023-10-19T09:46:00;14.70;99.90
21123;DHT22;10719;48.130;11.630;2023-10-19T09:48:26;14.70;99.90
21123;DHT22;10719;48.130;11.630;2023-10-19T09:50:56;14.80;99.90
21123;DHT22;10719;48.130;11.630;2023-10-19T09:53:25;14.90;99.90
21123;DHT22;10719;48.130;11.630;2023-10-19T09:55:56;15.10;99.90
21123;DHT22;10719;48.130;11.630;2023-10-19T09:58:28;15.30;99.90
21123;DHT22;10719;48.130;11.630;2023-10-19T10:00:55;15.50;99.90
21123;DHT22;10719;48.130;11.630;2023-10-19T10:03:41;15.70;99.90
21123;DHT22;10719;48.130;11.630;2023-10-19T10:06:08;16.10;99.90
21123;DHT22;10719;48.130;11.630;2023-10-19T10:08:35;16.40;99.90
21123;DHT22;10719;48.130;11.630;2023-10-19T10:13:49;17.00;99.90
21123;DHT22;10719;48.130;11.630;2023-10-19T10:16:23;17.00;99.90
21123;DHT22;10719;48.130;11.630;2023-10-19T10:18:53;16.80;99.90
21123;DHT22;10719;48.130;11.630;2023-10-19T10:21:20;16.70;99.90
21123;DHT22;10719;48.130;11.630;2023-10-19T10:23:53;16.60;99.90
21123;DHT22;10719;48.130;11.630;2023-10-19T10:26:21;16.60;99.90
21123;DHT22;10719;48.130;11.630;2023-10-19T10:29:14;16.50;99.90
21123;DHT22;10719;48.130;11.630;2023-10-19T10:31:44;16.50;99.90
21123;DHT22;10719;48.130;11.630;2023-10-19T10:34:10;16.70;99.90
21123;DHT22;10719;48.130;11.630;2023-10-19T10:39:28;16.90;99.90
21123;DHT22;10719;48.130;11.630;2023-10-19T10:41:59;16.90;99.90
21123;DHT22;10719;48.130;11.630;2023-10-19T10:44:47;17.00;99.90
21123;DHT22;10719;48.130;11.630;2023-10-19T10:47:18;16.90;99.90
21123;DHT22;10719;48.130;11.630;2023-10-19T10:49:50;16.90;99.90
21123;DHT22;10719;48.130;11.630;2023-10-19T10:52:35;16.80;99.90
21123;DHT22;10719;48.130;11.630;2023-10-19T10:55:13;16.70;99.90
21123;DHT22;10719;48.130;11.630;2023-10-19T10:57:43;16.70;99.90
21123;DHT22;10719;48.130;11.630;2023-10-19T11:00:12;16.80;99.90
21123;DHT22;10719;48.130;11.630;2023-10-19T11:02:43;16.90;99.90
21123;DHT22;10719;48.130;11.630;2023-10-19T11:05:13;17.40;99.90
21123;DHT22;10719;48.130;11.630;2023-10-19T11:08:06;17.90;99.90
21123;DHT22;10719;48.130;11.630;2023-10-19T11:10:33;18.50;99.90
21123;DHT22;10719;48.130;11.630;2023-10-19T11:15:28;18.70;99.90
21123;DHT22;10719;48.130;11.630;2023-10-19T11:17:53;18.80;99.90
21123;DHT22;10719;48.130;11.630;2023-10-19T11:20:23;18.80;99.90
21123;DHT22;10719;48.130;11.630;2023-10-19T11:22:51;18.80;99.90
21123;DHT22;10719;48.130;11.630;2023-10-19T11:25:23;18.90;99.90
21123;DHT22;10719;48.130;11.630;2023-10-19T11:27:48;18.40;99.90
21123;DHT22;10719;48.130;11.630;2023-10-19T11:30:23;18.30;99.90
21123;DHT22;10719;48.130;11.630;2023-10-19T11:32:49;18.30;99.90
21123;DHT22;10719;48.130;11.630;2023-10-19T11:35:21;18.20;99.90
21123;DHT22;10719;48.130;11.630;2023-10-19T11:40:13;18.00;99.90
21123;DHT22;10719;48.130;11.630;2023-10-19T11:42:38;17.90;99.90
21123;DHT22;10719;48.130;11.630;2023-10-19T11:45:05;17.90;99.90
21123;DHT22;10719;48.130;11.630;2023-10-19T11:47:31;17.60;99.90
21123;DHT22;10719;48.130;11.630;2023-10-19T11:49:57;17.50;99.90
21123;DHT22;10719;48.130;11.630;2023-10-19T11:52:23;17.50;99.90
21123;DHT22;10719;48.130;11.630;2023-10-19T11:54:48;17.40;99.90
21123;DHT22;10719;48.130;11.630;2023-10-19T11:57:14;17.50;99.90
21123;DHT22;10719;48.130;11.630;2023-10-19T11:59:39;17.60;99.90
21123;DHT22;10719;48.130;11.630;2023-10-19T12:02:09;17.80;99.90
21123;DHT22;10719;48.130;11.630;2023-10-19T12:04:35;17.90;99.90
21123;DHT22;10719;48.130;11.630;2023-10-19T12:07:02;17.80;99.90
21123;DHT22;10719;48.130;11.630;2023-10-19T12:09:29;17.80;99.90
21123;DHT22;10719;48.130;11.630;2023-10-19T12:11:56;17.80;99.90
21123;DHT22;10719;48.130;11.630;2023-10-19T12:14:22;17.90;99.90
21123;DHT22;10719;48.130;11.630;2023-10-19T12:16:48;18.20;99.90
21123;DHT22;10719;48.130;11.630;2023-10-19T12:19:14;18.90;99.90
21123;DHT22;10719;48.130;11.630;2023-10-19T12:21:40;20.60;99.90
21123;DHT22;10719;48.130;11.630;2023-10-19T12:24:10;21.40;99.90
21123;DHT22;10719;48.130;11.630;2023-10-19T12:26:35;21.20;99.90
21123;DHT22;10719;48.130;11.630;2023-10-19T12:29:01;21.30;99.90
21123;DHT22;10719;48.130;11.630;2023-10-19T12:31:29;20.90;99.90
21123;DHT22;10719;48.130;11.630;2023-10-19T12:33:55;20.40;99.90
21123;DHT22;10719;48.130;11.630;2023-10-19T12:36:21;19.90;99.90
21123;DHT22;10719;48.130;11.630;2023-10-19T12:38:50;19.90;99.90
21123;DHT22;10719;48.130;11.630;2023-10-19T12:41:16;19.80;99.90
21123;DHT22;10719;48.130;11.630;2023-10-19T12:43:43;19.90;99.90
21123;DHT22;10719;48.130;11.630;2023-10-19T12:46:09;20.60;99.90
21123;DHT22;10719;48.130;11.630;2023-10-19T12:48:35;22.60;99.90
21123;DHT22;10719;48.130;11.630;2023-10-19T12:51:06;23.10;99.90
21123;DHT22;10719;48.130;11.630;2023-10-19T12:53:32;22.50;99.90
21123;DHT22;10719;48.130;11.630;2023-10-19T12:55:59;21.80;99.90
21123;DHT22;10719;48.130;11.630;2023-10-19T12:58:25;22.10;99.90
21123;DHT22;10719;48.130;11.630;2023-10-19T13:00:53;22.30;99.90
21123;DHT22;10719;48.130;11.630;2023-10-19T13:03:20;23.20;99.90
21123;DHT22;10719;48.130;11.630;2023-10-19T13:05:47;22.40;99.90
21123;DHT22;10719;48.130;11.630;2023-10-19T13:08:15;22.90;99.90
21123;DHT22;10719;48.130;11.630;2023-10-19T13:10:46;23.60;99.90
21123;DHT22;10719;48.130;11.630;2023-10-19T13:13:14;24.00;99.90
21123;DHT22;10719;48.130;11.630;2023-10-19T13:15:44;24.40;99.90
21123;DHT22;10719;48.130;11.630;2023-10-19T13:18:11;24.20;99.90
21123;DHT22;10719;48.130;11.630;2023-10-19T13:20:39;24.20;99.90
21123;DHT22;10719;48.130;11.630;2023-10-19T13:23:09;24.00;99.90
21123;DHT22;10719;48.130;11.630;2023-10-19T13:25:39;23.30;99.90
21123;DHT22;10719;48.130;11.630;2023-10-19T13:28:10;22.70;99.90
21123;DHT22;10719;48.130;11.630;2023-10-19T13:30:40;21.70;99.90
21123;DHT22;10719;48.130;11.630;2023-10-19T13:33:07;20.90;99.90
21123;DHT22;10719;48.130;11.630;2023-10-19T13:35:36;20.50;99.90
21123;DHT22;10719;48.130;11.630;2023-10-19T13:38:03;20.10;99.90
21123;DHT22;10719;48.130;11.630;2023-10-19T13:40:29;19.80;99.90
21123;DHT22;10719;48.130;11.630;2023-10-19T13:42:58;19.70;99.90
21123;DHT22;10719;48.130;11.630;2023-10-19T13:45:24;19.20;99.90
21123;DHT22;10719;48.130;11.630;2023-10-19T13:47:50;19.10;99.90
21123;DHT22;10719;48.130;11.630;2023-10-19T13:50:23;18.70;99.90
21123;DHT22;10719;48.130;11.630;2023-10-19T13:52:53;18.40;99.90
21123;DHT22;10719;48.130;11.630;2023-10-19T13:55:19;18.20;99.90
21123;DHT22;10719;48.130;11.630;2023-10-19T13:57:47;18.00;99.90
21123;DHT22;10719;48.130;11.630;2023-10-19T14:00:14;17.80;99.90
21123;DHT22;10719;48.130;11.630;2023-10-19T14:02:48;17.60;99.90
21123;DHT22;10719;48.130;11.630;2023-10-19T14:05:14;17.50;99.90
21123;DHT22;10719;48.130;11.630;2023-10-19T14:07:39;17.30;99.90
21123;DHT22;10719;48.130;11.630;2023-10-19T14:10:06;17.10;99.90
21123;DHT22;10719;48.130;11.630;2023-10-19T14:12:33;17.00;99.90
21123;DHT22;10719;48.130;11.630;2023-10-19T14:14:58;16.90;99.90
21123;DHT22;10719;48.130;11.630;2023-10-19T14:17:24;16.90;99.90
21123;DHT22;10719;48.130;11.630;2023-10-19T14:19:50;16.80;99.90
21123;DHT22;10719;48.130;11.630;2023-10-19T14:22:16;16.70;99.90
21123;DHT22;10719;48.130;11.630;2023-10-19T14:24:43;16.70;99.90
21123;DHT22;10719;48.130;11.630;2023-10-19T14:27:10;16.60;99.90
21123;DHT22;10719;48.130;11.630;2023-10-19T14:29:36;16.50;99.90
21123;DHT22;10719;48.130;11.630;2023-10-19T14:32:01;16.50;99.90
21123;DHT22;10719;48.130;11.630;2023-10-19T14:34:28;16.60;99.90
21123;DHT22;10719;48.130;11.630;2023-10-19T14:36:54;16.80;99.90
21123;DHT22;10719;48.130;11.630;2023-10-19T14:39:20;17.00;99.90
21123;DHT22;10719;48.130;11.630;2023-10-19T14:41:46;17.20;99.90
21123;DHT22;10719;48.130;11.630;2023-10-19T14:44:12;17.10;99.90
21123;DHT22;10719;48.130;11.630;2023-10-19T14:46:37;17.10;99.90
21123;DHT22;10719;48.130;11.630;2023-10-19T14:49:03;17.10;99.90
21123;DHT22;10719;48.130;11.630;2023-10-19T14:51:28;17.00;99.90
21123;DHT22;10719;48.130;11.630;2023-10-19T14:53:54;16.80;99.90
21123;DHT22;10719;48.130;11.630;2023-10-19T14:56:21;16.70;99.90
21123;DHT22;10719;48.130;11.630;2023-10-19T14:58:47;16.50;99.90
21123;DHT22;10719;48.130;11.630;2023-10-19T15:01:12;16.30;99.90
21123;DHT22;10719;48.130;11.630;2023-10-19T15:03:42;16.20;99.90
21123;DHT22;10719;48.130;11.630;2023-10-19T15:06:08;16.10;99.90
21123;DHT22;10719;48.130;11.630;2023-10-19T15:08:34;15.90;99.90
21123;DHT22;10719;48.130;11.630;2023-10-19T15:10:59;15.80;99.90
21123;DHT22;10719;48.130;11.630;2023-10-19T15:13:25;15.70;99.90
21123;DHT22;10719;48.130;11.630;2023-10-19T15:15:51;15.60;99.90
21123;DHT22;10719;48.130;11.630;2023-10-19T15:18:17;15.60;99.90
21123;DHT22;10719;48.130;11.630;2023-10-19T15:20:44;15.40;99.90
21123;DHT22;10719;48.130;11.630;2023-10-19T15:23:09;15.40;99.90
21123;DHT22;10719;48.130;11.630;2023-10-19T15:25:37;15.30;99.90
21123;DHT22;10719;48.130;11.630;2023-10-19T15:28:02;15.20;99.90
21123;DHT22;10719;48.130;11.630;2023-10-19T15:30:28;15.20;99.90
21123;DHT22;10719;48.130;11.630;2023-10-19T15:32:54;15.10;99.90
21123;DHT22;10719;48.130;11.630;2023-10-19T15:35:21;15.10;99.90
21123;DHT22;10719;48.130;11.630;2023-10-19T15:37:48;15.00;99.90
21123;DHT22;10719;48.130;11.630;2023-10-19T15:40:17;15.00;99.90
21123;DHT22;10719;48.130;11.630;2023-10-19T15:42:44;15.00;99.90